Airfield :
LOGIN :

Register | Disclaimer

   EN    FR    IT 

 










Legend :    VFR   Marginal VFR   IFR   Intensive IFR   Very Intensive IFR
Visi :
Ceiling :
>= 8 km
>= 3000ft
5 to 8 km
1000 to 3000 ft
1500m to 5 km
500 to 1000 ft
800 to 1500m
200 to 500 ft
< 800m
< 200 ft
Symbols :   Thunderstorms  Fog  Heavy snow  Heavy precipitations  Wind > 20 kt
SIGMETs :     Misc.  Thunderstorms  Icing  Turbulence  Mountain Waves  Volcanic Ashes







- Airport Elevation : 423 ft
- IATA code : PIS
- Download approach charts


LFBI - Poitiers

CURRENT METAR :
  • 211800Z AUTO 31005KT CAVOK 17/13 Q1018 TEMPO SHRA SCT030CB BKN035TCU

EXPIRED METARs :
  • 211730Z AUTO 24004KT 9999 ///TCU 18/13 Q1018 TEMPO SHRA SCT030CB BKN035TCU
  • 211700Z AUTO 22004KT 9999 FEW019/// SCT092/// OVC130/// ///CB 16/13 Q1018 TEMPO SHRA BECMG BKN035
  • 211630Z AUTO 23006KT 9999 -RA FEW038/// BKN076/// OVC092/// ///TCU 15/13 Q1018 TEMPO SHRA SCT025CB BKN030TCU
  • 211600Z AUTO 25010KT 9999 -RA FEW033/// OVC088/// ///CB 15/12 Q1018 TEMPO SHRA BECMG 32006KT
  • 211530Z AUTO 24009KT 9999 RA SCT039/// BKN045/// BKN056/// ///CB 18/14 Q1018 NOSIG

TAF TAF LFBI
Valid from the 21 at 18:00 until the 22 at 18:00 UTC


211700Z 2118/2218 28005KT 9999 BKN040
TEMPO 2118/2120 SHRA SCT030CB BKN035TCU
PROB40 2203/2207 0800 BCFG
TEMPO 2210/2216 BKN030TCU
No reported NOTAMs for that airfield.



MET'MAP, your aeronautical weather chart ! - Copyright ORBIFLY December 2007 - Disclaimer

ORBIFLY MET'MAP TEAM :

Programming & Development : Alexandra Zaïnal
Concept & Development : Baudouin d'Aumeries
Co-Development & Prog : Marc-Olivier Méhu
Technical & hardware support : Manuel Goepfert

Contact : metmap@orbifly.com




SOURCES & CREDITS :

   NOAA